createdAt,value
2023-05-05T00:00:12.416Z,36.40
2023-05-05T00:01:12.471Z,36.36
2023-05-05T00:02:12.510Z,36.33
2023-05-05T00:03:12.678Z,36.34
2023-05-05T00:04:12.602Z,36.35
2023-05-05T00:05:12.623Z,36.36
2023-05-05T00:06:12.639Z,36.35
2023-05-05T00:07:12.645Z,36.35
2023-05-05T00:08:12.671Z,36.33
2023-05-05T00:09:12.692Z,36.36
2023-05-05T00:10:12.763Z,36.32
2023-05-05T00:11:12.780Z,36.31
2023-05-05T00:12:12.734Z,36.31
2023-05-05T00:13:12.900Z,36.37
2023-05-05T00:14:12.776Z,36.36
2023-05-05T00:15:12.779Z,36.32
2023-05-05T00:16:12.814Z,36.34
2023-05-05T00:17:12.904Z,36.31
2023-05-05T00:18:12.932Z,36.31
2023-05-05T00:19:12.927Z,36.32
2023-05-05T00:20:12.949Z,36.32
2023-05-05T00:21:12.968Z,36.31
2023-05-05T00:22:13.011Z,36.32
2023-05-05T00:23:13.035Z,36.32
2023-05-05T00:24:13.065Z,36.31
2023-05-05T00:25:13.116Z,36.31
2023-05-05T00:26:13.116Z,36.35
2023-05-05T00:27:13.133Z,36.30
2023-05-05T00:28:13.141Z,36.27
2023-05-05T00:29:13.168Z,36.34
2023-05-05T00:30:13.157Z,36.34
2023-05-05T00:31:13.193Z,36.32
2023-05-05T00:32:13.179Z,36.32
2023-05-05T00:33:13.169Z,36.28
2023-05-05T00:34:13.246Z,36.30
2023-05-05T00:35:13.197Z,36.32
2023-05-05T00:36:13.207Z,36.32
2023-05-05T00:37:13.264Z,36.29
2023-05-05T00:38:13.237Z,36.31
2023-05-05T00:39:13.267Z,36.32
2023-05-05T00:40:13.266Z,36.31
2023-05-05T00:41:13.297Z,36.37
2023-05-05T00:42:13.301Z,36.37
2023-05-05T00:43:13.321Z,36.32
2023-05-05T00:44:13.343Z,36.36
2023-05-05T00:45:13.358Z,36.27
2023-05-05T00:46:13.398Z,36.33
2023-05-05T00:47:13.433Z,36.34
2023-05-05T00:48:13.421Z,36.30
2023-05-05T00:49:13.511Z,36.30
2023-05-05T00:50:13.496Z,36.25
2023-05-05T00:51:13.547Z,36.32
2023-05-05T00:52:13.651Z,36.33
2023-05-05T00:53:13.620Z,36.27
2023-05-05T00:54:13.615Z,36.29
2023-05-05T00:55:13.667Z,36.38
2023-05-05T00:56:13.633Z,36.26
2023-05-05T00:57:13.719Z,36.26
2023-05-05T00:58:13.720Z,36.27
2023-05-05T00:59:13.752Z,36.31
2023-05-05T01:00:13.740Z,36.30
2023-05-05T01:01:13.768Z,36.27
2023-05-05T01:02:13.802Z,36.29
2023-05-05T01:03:13.880Z,36.26
2023-05-05T01:04:13.841Z,36.29
2023-05-05T01:05:13.863Z,36.29
2023-05-05T01:06:13.858Z,36.29
2023-05-05T01:07:13.897Z,36.28
2023-05-05T01:08:13.862Z,36.30
2023-05-05T01:09:13.886Z,36.30
2023-05-05T01:10:20.212Z,36.29
2023-05-05T01:11:14.879Z,36.30
2023-05-05T01:12:13.881Z,36.30
2023-05-05T01:13:13.970Z,36.26
2023-05-05T01:14:13.858Z,36.21
2023-05-05T01:15:13.847Z,36.25
2023-05-05T01:16:13.878Z,36.25
2023-05-05T01:17:13.888Z,36.25
2023-05-05T01:18:13.836Z,36.27
2023-05-05T01:19:13.836Z,36.29
2023-05-05T01:20:13.814Z,36.26
2023-05-05T01:21:13.835Z,36.26
2023-05-05T01:22:13.798Z,36.25
2023-05-05T01:23:13.820Z,36.26
2023-05-05T01:24:13.804Z,36.27
2023-05-05T01:25:13.775Z,36.29
2023-05-05T01:26:13.792Z,36.27
2023-05-05T01:27:13.802Z,36.32
2023-05-05T01:28:13.771Z,36.24
2023-05-05T01:29:13.852Z,36.26
2023-05-05T01:30:13.911Z,36.21
2023-05-05T01:31:13.972Z,36.20
2023-05-05T01:32:13.989Z,36.26
2023-05-05T01:33:14.046Z,36.22
2023-05-05T01:34:14.087Z,36.21
2023-05-05T01:35:14.139Z,36.21
2023-05-05T01:36:14.179Z,36.21
2023-05-05T01:37:14.648Z,36.17
2023-05-05T01:38:14.250Z,36.25
2023-05-05T01:39:14.320Z,36.20
2023-05-05T01:40:14.360Z,36.21
2023-05-05T01:41:14.413Z,36.22
2023-05-05T01:42:14.440Z,36.21
2023-05-05T01:43:14.492Z,36.18
2023-05-05T01:44:14.555Z,36.22
2023-05-05T01:45:14.591Z,36.22
2023-05-05T01:46:14.777Z,36.18
2023-05-05T01:47:14.681Z,36.20
2023-05-05T01:48:14.731Z,36.20
2023-05-05T01:49:14.765Z,36.17
2023-05-05T01:50:14.805Z,36.17
2023-05-05T01:51:14.864Z,36.21
2023-05-05T01:52:14.923Z,36.21
2023-05-05T01:53:14.943Z,36.18
2023-05-05T01:54:14.966Z,36.18
2023-05-05T01:55:14.997Z,36.22
2023-05-05T01:56:15.061Z,36.18
2023-05-05T01:57:15.066Z,36.20
2023-05-05T01:58:15.111Z,36.17
2023-05-05T01:59:15.125Z,36.17
2023-05-05T02:00:15.182Z,36.20
2023-05-05T02:01:15.214Z,36.21
2023-05-05T02:02:15.299Z,36.16
2023-05-05T02:03:15.370Z,36.17
2023-05-05T02:04:15.353Z,36.17
2023-05-05T02:05:15.402Z,36.17
2023-05-05T02:06:15.460Z,36.21
2023-05-05T02:07:15.504Z,36.21
2023-05-05T02:08:15.574Z,36.20
2023-05-05T02:09:15.584Z,36.18
2023-05-05T02:10:15.614Z,36.17
2023-05-05T02:11:15.682Z,36.18
2023-05-05T02:12:15.714Z,36.20
2023-05-05T02:13:15.868Z,36.16
2023-05-05T02:14:15.791Z,36.13
2023-05-05T02:15:15.877Z,36.15
2023-05-05T02:16:15.934Z,36.18
2023-05-05T02:17:15.903Z,36.21
2023-05-05T02:18:15.909Z,36.17
2023-05-05T02:19:15.981Z,36.14
2023-05-05T02:20:15.985Z,36.18
2023-05-05T02:21:16.040Z,36.14
2023-05-05T02:22:16.021Z,36.18
2023-05-05T02:23:16.067Z,36.15
2023-05-05T02:24:16.063Z,36.13
2023-05-05T02:25:16.010Z,36.18
2023-05-05T02:26:16.066Z,36.14
2023-05-05T02:27:16.032Z,36.20
2023-05-05T02:28:16.031Z,36.11
2023-05-05T02:29:16.027Z,36.15
2023-05-05T02:30:16.036Z,36.15
2023-05-05T02:31:16.071Z,36.13
2023-05-05T02:32:16.003Z,36.15
2023-05-05T02:33:16.017Z,36.13
2023-05-05T02:34:16.013Z,36.13
2023-05-05T02:35:16.068Z,36.12
2023-05-05T02:36:16.003Z,36.16
2023-05-05T02:37:16.001Z,36.14
2023-05-05T02:38:15.985Z,36.14
2023-05-05T02:39:15.998Z,36.12
2023-05-05T02:40:15.980Z,36.13
2023-05-05T02:41:15.966Z,36.17
2023-05-05T02:42:15.974Z,36.13
2023-05-05T02:43:15.982Z,36.10
2023-05-05T02:44:15.970Z,36.13
2023-05-05T02:45:15.959Z,36.11
2023-05-05T02:46:16.215Z,36.10
2023-05-05T02:47:15.968Z,36.13
2023-05-05T02:48:15.971Z,36.14
2023-05-05T02:49:15.927Z,36.14
2023-05-05T02:50:15.965Z,36.10
2023-05-05T02:51:15.925Z,36.11
2023-05-05T02:52:15.932Z,36.11
2023-05-05T02:53:15.934Z,36.09
2023-05-05T02:54:15.978Z,36.09
2023-05-05T02:55:15.925Z,36.14
2023-05-05T02:56:15.912Z,36.06
2023-05-05T02:57:15.925Z,36.09
2023-05-05T02:58:15.943Z,36.05
2023-05-05T02:59:16.469Z,36.09
2023-05-05T03:00:15.991Z,36.04
2023-05-05T03:01:16.084Z,36.06
2023-05-05T03:02:16.171Z,36.09
2023-05-05T03:03:16.181Z,36.06
2023-05-05T03:04:16.106Z,36.09
2023-05-05T03:05:16.131Z,36.04
2023-05-05T03:06:16.166Z,36.09
2023-05-05T03:07:16.156Z,36.05
2023-05-05T03:08:16.214Z,36.02
2023-05-05T03:09:16.192Z,36.06
2023-05-05T03:10:16.239Z,36.10
2023-05-05T03:11:16.180Z,36.06
2023-05-05T03:12:16.219Z,36.07
2023-05-05T03:13:16.221Z,36.11
2023-05-05T03:14:16.185Z,36.06
2023-05-05T03:15:16.210Z,36.04
2023-05-05T03:16:16.212Z,36.10
2023-05-05T03:17:16.191Z,36.06
2023-05-05T03:18:16.212Z,36.09
2023-05-05T03:19:16.173Z,36.05
2023-05-05T03:20:16.214Z,36.02
2023-05-05T03:21:16.163Z,36.04
2023-05-05T03:22:16.176Z,36.03
2023-05-05T03:23:16.198Z,36.05
2023-05-05T03:24:16.161Z,36.05
2023-05-05T03:25:16.185Z,36.09
2023-05-05T03:26:16.188Z,36.06
2023-05-05T03:27:16.175Z,36.08
2023-05-05T03:28:16.190Z,36.06
2023-05-05T03:29:16.209Z,36.05
2023-05-05T03:30:16.168Z,36.11
2023-05-05T03:31:16.196Z,36.05
2023-05-05T03:32:16.145Z,36.08
2023-05-05T03:33:16.203Z,36.01
2023-05-05T03:34:16.165Z,36.01
2023-05-05T03:35:16.166Z,36.08
2023-05-05T03:36:16.186Z,36.06
2023-05-05T03:37:16.164Z,36.07
2023-05-05T03:38:16.172Z,36.00
2023-05-05T03:39:16.184Z,36.05
2023-05-05T03:40:16.161Z,36.02
2023-05-05T03:41:16.192Z,36.05
2023-05-05T03:42:16.192Z,36.09
2023-05-05T03:43:16.159Z,36.05
2023-05-05T03:44:16.151Z,36.09
2023-05-05T03:45:16.149Z,36.03
2023-05-05T03:46:16.315Z,36.04
2023-05-05T03:47:16.180Z,36.05
2023-05-05T03:48:16.136Z,36.04
2023-05-05T03:49:16.147Z,36.03
2023-05-05T03:50:16.138Z,36.06
2023-05-05T03:51:16.158Z,36.03
2023-05-05T03:52:16.169Z,36.02
2023-05-05T03:53:16.160Z,36.00
2023-05-05T03:54:16.170Z,35.95
2023-05-05T03:55:16.167Z,36.01
2023-05-05T03:56:16.168Z,36.03
2023-05-05T03:57:16.180Z,36.05
2023-05-05T03:58:16.242Z,36.09
2023-05-05T03:59:16.251Z,36.01
2023-05-05T04:00:16.328Z,35.97
2023-05-05T04:01:16.338Z,35.97
2023-05-05T04:02:18.381Z,36.01
2023-05-05T04:03:16.509Z,36.01
2023-05-05T04:04:16.412Z,36.01
2023-05-05T04:05:16.360Z,35.97
2023-05-05T04:06:16.349Z,36.00
2023-05-05T04:07:16.306Z,35.98
2023-05-05T04:08:16.384Z,36.00
2023-05-05T04:09:16.339Z,35.96
2023-05-05T04:10:16.305Z,35.96
2023-05-05T04:11:16.290Z,35.94
2023-05-05T04:12:16.297Z,35.94
2023-05-05T04:13:16.415Z,35.95
2023-05-05T04:14:16.322Z,35.94
2023-05-05T04:15:16.307Z,35.97
2023-05-05T04:16:16.355Z,35.96
2023-05-05T04:17:16.334Z,35.94
2023-05-05T04:18:16.337Z,35.96
2023-05-05T04:19:16.343Z,35.97
2023-05-05T04:20:16.408Z,35.94
2023-05-05T04:21:16.375Z,35.96
2023-05-05T04:22:16.383Z,35.93
2023-05-05T04:23:16.491Z,35.97
2023-05-05T04:24:16.431Z,35.93
2023-05-05T04:25:16.447Z,35.93
2023-05-05T04:26:16.445Z,35.90
2023-05-05T04:27:16.442Z,35.92
2023-05-05T04:28:16.518Z,35.94
2023-05-05T04:29:16.511Z,35.94
2023-05-05T04:30:16.514Z,35.96
2023-05-05T04:31:16.594Z,35.92
2023-05-05T04:32:16.570Z,35.92
2023-05-05T04:33:16.581Z,35.90
2023-05-05T04:34:16.617Z,35.88
2023-05-05T04:35:16.577Z,35.93
2023-05-05T04:36:16.605Z,35.93
2023-05-05T04:37:16.727Z,35.92
2023-05-05T04:38:16.782Z,35.88
2023-05-05T04:39:16.709Z,35.89
2023-05-05T04:40:16.727Z,35.84
2023-05-05T04:41:16.742Z,35.89
2023-05-05T04:42:16.714Z,35.87
2023-05-05T04:43:16.726Z,35.89
2023-05-05T04:44:16.751Z,35.83
2023-05-05T04:45:16.766Z,35.87
2023-05-05T04:46:16.867Z,35.88
2023-05-05T04:47:16.845Z,35.84
2023-05-05T04:48:16.909Z,35.87
2023-05-05T04:49:16.924Z,35.84
2023-05-05T04:50:16.961Z,35.84
2023-05-05T04:51:17.025Z,35.81
2023-05-05T04:52:17.043Z,35.84
2023-05-05T04:53:17.089Z,35.83
2023-05-05T04:54:17.133Z,35.79
2023-05-05T04:55:17.157Z,35.81
2023-05-05T04:56:17.256Z,35.77
2023-05-05T04:57:17.225Z,35.82
2023-05-05T04:58:17.305Z,35.81
2023-05-05T04:59:17.331Z,35.78
2023-05-05T05:00:17.365Z,35.75
2023-05-05T05:01:17.324Z,35.74
2023-05-05T05:02:17.401Z,35.74
2023-05-05T05:03:17.545Z,35.76
2023-05-05T05:04:17.378Z,35.76
2023-05-05T05:05:17.379Z,35.77
2023-05-05T05:06:17.354Z,35.71
2023-05-05T05:07:17.354Z,35.75
2023-05-05T05:08:17.379Z,35.72
2023-05-05T05:09:17.370Z,35.73
2023-05-05T05:10:17.345Z,35.73
2023-05-05T05:11:17.344Z,35.76
2023-05-05T05:12:17.330Z,35.69
2023-05-05T05:13:17.395Z,35.72
2023-05-05T05:14:17.338Z,35.69
2023-05-05T05:15:17.332Z,35.76
2023-05-05T05:16:17.354Z,35.69
2023-05-05T05:17:17.310Z,35.69
2023-05-05T05:18:17.462Z,35.68
2023-05-05T05:19:17.318Z,35.71
2023-05-05T05:20:17.313Z,35.67
2023-05-05T05:21:17.369Z,35.67
2023-05-05T05:22:17.387Z,35.69
2023-05-05T05:23:17.390Z,35.68
2023-05-05T05:24:17.393Z,35.66
2023-05-05T05:25:17.401Z,35.64
2023-05-05T05:26:17.439Z,35.66
2023-05-05T05:27:17.449Z,35.66
2023-05-05T05:28:17.424Z,35.68
2023-05-05T05:29:17.503Z,35.64
2023-05-05T05:30:17.436Z,35.73
2023-05-05T05:31:17.738Z,35.69
2023-05-05T05:32:17.466Z,35.73
2023-05-05T05:33:17.581Z,35.82
2023-05-05T05:34:17.665Z,35.77
2023-05-05T05:35:17.444Z,35.74
2023-05-05T05:36:17.459Z,35.70
2023-05-05T05:37:17.448Z,35.78
2023-05-05T05:38:17.459Z,35.78
2023-05-05T05:39:17.581Z,35.77
2023-05-05T05:40:17.466Z,35.89
2023-05-05T05:41:17.458Z,35.95
2023-05-05T05:42:17.534Z,36.09
2023-05-05T05:43:17.651Z,36.14
2023-05-05T05:44:17.557Z,36.43
2023-05-05T05:45:17.633Z,36.57
2023-05-05T05:46:18.315Z,36.69
2023-05-05T05:47:17.676Z,36.74
2023-05-05T05:48:17.676Z,36.99
2023-05-05T05:49:17.757Z,36.92
2023-05-05T05:50:17.804Z,37.59
2023-05-05T05:51:17.933Z,37.68
2023-05-05T05:52:18.045Z,37.46
2023-05-05T05:53:17.987Z,37.64
2023-05-05T05:54:18.049Z,37.90
2023-05-05T05:55:18.110Z,38.14
2023-05-05T05:56:18.118Z,38.06
2023-05-05T05:57:18.161Z,38.08
2023-05-05T05:58:18.224Z,38.09
2023-05-05T05:59:18.239Z,38.30
2023-05-05T06:00:18.321Z,38.51
2023-05-05T06:01:18.417Z,38.39
2023-05-05T06:02:18.413Z,38.49
2023-05-05T06:03:18.671Z,38.71
2023-05-05T06:04:18.506Z,38.75
2023-05-05T06:05:18.513Z,38.95
2023-05-05T06:06:18.728Z,39.05
2023-05-05T06:07:18.875Z,38.97
2023-05-05T06:08:19.223Z,39.13
2023-05-05T06:09:18.633Z,39.28
2023-05-05T06:10:28.098Z,39.22
2023-05-05T06:11:19.635Z,39.37
2023-05-05T06:12:18.585Z,39.03
2023-05-05T06:13:18.613Z,39.09
2023-05-05T06:14:20.119Z,38.98
2023-05-05T06:15:18.592Z,38.94
2023-05-05T06:16:18.591Z,38.78
2023-05-05T06:17:18.601Z,38.71
2023-05-05T06:18:18.635Z,38.60
2023-05-05T06:19:18.611Z,38.34
2023-05-05T06:20:18.558Z,37.96
2023-05-05T06:21:18.552Z,37.68
2023-05-05T06:22:18.508Z,37.34
2023-05-05T06:23:18.604Z,37.52
2023-05-05T06:24:18.507Z,37.69
2023-05-05T06:25:18.555Z,37.64
2023-05-05T06:26:18.531Z,37.64
2023-05-05T06:27:18.515Z,37.58
2023-05-05T06:28:18.848Z,37.63
2023-05-05T06:29:18.598Z,37.59
2023-05-05T06:30:18.473Z,37.46
2023-05-05T06:31:18.476Z,37.44
2023-05-05T06:32:18.459Z,37.36
2023-05-05T06:33:18.497Z,37.32
2023-05-05T06:34:18.456Z,37.38
2023-05-05T06:35:18.432Z,37.12
2023-05-05T06:36:18.463Z,34.84
2023-05-05T06:37:18.445Z,33.65
2023-05-05T06:38:18.829Z,34.23
2023-05-05T06:39:18.526Z,34.17
2023-05-05T06:40:18.544Z,34.53
2023-05-05T06:41:18.593Z,34.22
2023-05-05T06:42:18.644Z,34.09
2023-05-05T06:43:18.685Z,33.73
2023-05-05T06:44:18.900Z,33.69
2023-05-05T06:45:18.739Z,33.56
2023-05-05T06:46:18.902Z,33.44
2023-05-05T06:47:19.765Z,33.17
2023-05-05T06:48:18.906Z,33.00
2023-05-05T06:49:18.977Z,33.13
2023-05-05T06:50:21.769Z,33.15
2023-05-05T06:51:19.015Z,32.91
2023-05-05T06:52:19.031Z,32.87
2023-05-05T06:53:19.150Z,33.08
2023-05-05T06:54:18.995Z,33.05
2023-05-05T06:55:18.985Z,33.13
2023-05-05T06:56:18.956Z,33.09
2023-05-05T06:57:18.995Z,33.07
2023-05-05T06:58:18.944Z,33.21
2023-05-05T06:59:18.962Z,33.18
2023-05-05T07:00:19.030Z,33.20
2023-05-05T07:01:19.039Z,32.99
2023-05-05T07:02:18.959Z,32.86
2023-05-05T07:03:19.120Z,32.70
2023-05-05T07:04:19.070Z,32.77
2023-05-05T07:05:18.944Z,32.74
2023-05-05T07:06:18.894Z,32.69
2023-05-05T07:07:18.906Z,32.70
2023-05-05T07:08:18.977Z,32.62
2023-05-05T07:09:19.133Z,32.70
2023-05-05T07:10:18.976Z,32.59
2023-05-05T07:11:18.948Z,32.57
2023-05-05T07:12:19.072Z,32.64
2023-05-05T07:13:18.899Z,32.56
2023-05-05T07:14:20.575Z,32.01
2023-05-05T07:15:27.490Z,31.10
2023-05-05T07:16:20.265Z,30.99
2023-05-05T07:17:19.107Z,31.28
2023-05-05T07:18:19.108Z,30.99
2023-05-05T07:19:19.138Z,30.74
2023-05-05T07:20:19.042Z,30.84
2023-05-05T07:21:19.075Z,30.58
2023-05-05T07:22:19.054Z,30.45
2023-05-05T07:23:19.007Z,30.65
2023-05-05T07:24:19.027Z,30.68
2023-05-05T07:25:19.163Z,30.53
2023-05-05T07:26:19.132Z,30.62
2023-05-05T07:27:19.120Z,30.56
2023-05-05T07:28:19.156Z,30.62
2023-05-05T07:29:19.272Z,30.73
2023-05-05T07:30:19.705Z,30.71
2023-05-05T07:31:19.335Z,31.20
2023-05-05T07:32:19.437Z,31.42
2023-05-05T07:33:19.283Z,31.75
2023-05-05T07:34:19.780Z,31.93
2023-05-05T07:35:19.334Z,31.72
2023-05-05T07:36:19.337Z,31.88
2023-05-05T07:37:19.354Z,32.03
2023-05-05T07:38:19.437Z,32.42
2023-05-05T07:39:19.426Z,32.77
2023-05-05T07:40:19.483Z,33.30
2023-05-05T07:41:19.601Z,33.32
2023-05-05T07:42:19.926Z,33.62
2023-05-05T07:43:19.754Z,33.75
2023-05-05T07:44:19.761Z,33.89
2023-05-05T07:45:19.826Z,33.95
2023-05-05T07:46:19.867Z,34.07
2023-05-05T07:47:20.081Z,34.02
2023-05-05T07:48:19.896Z,34.11
2023-05-05T07:49:19.924Z,33.96
2023-05-05T07:50:20.065Z,34.07
2023-05-05T07:51:20.139Z,34.03
2023-05-05T07:52:25.231Z,33.72
2023-05-05T07:53:20.984Z,33.52
2023-05-05T07:54:20.036Z,33.76
2023-05-05T07:55:20.008Z,33.72
2023-05-05T07:56:21.651Z,33.78
2023-05-05T07:57:20.199Z,33.70
2023-05-05T07:58:19.968Z,33.89
2023-05-05T07:59:19.965Z,33.92
2023-05-05T08:00:19.945Z,33.90
2023-05-05T08:01:19.955Z,34.02
2023-05-05T08:02:19.943Z,34.07
2023-05-05T08:03:20.118Z,34.30
2023-05-05T08:04:19.998Z,34.47
2023-05-05T08:05:19.953Z,34.66
2023-05-05T08:06:19.888Z,34.72
2023-05-05T08:07:19.902Z,35.02
2023-05-05T08:08:19.886Z,35.06
2023-05-05T08:09:19.904Z,35.31
2023-05-05T08:10:19.864Z,35.59
2023-05-05T08:11:19.853Z,35.73
2023-05-05T08:12:19.881Z,35.71
2023-05-05T08:13:20.009Z,36.07
2023-05-05T08:14:19.866Z,35.96
2023-05-05T08:15:19.900Z,36.19
2023-05-05T08:16:19.873Z,36.57
2023-05-05T08:17:19.830Z,36.52
2023-05-05T08:18:19.826Z,36.66
2023-05-05T08:19:28.946Z,36.95
2023-05-05T08:20:20.862Z,36.93
2023-05-05T08:21:19.839Z,37.41
2023-05-05T08:22:19.787Z,37.88
2023-05-05T08:23:19.855Z,37.62
2023-05-05T08:24:19.776Z,37.65
2023-05-05T08:25:19.798Z,37.56
2023-05-05T08:26:19.767Z,37.54
2023-05-05T08:27:19.753Z,37.28
2023-05-05T08:28:19.749Z,37.13
2023-05-05T08:29:20.085Z,37.08
2023-05-05T08:30:19.837Z,37.02
2023-05-05T08:31:19.859Z,36.94
2023-05-05T08:32:19.843Z,36.97
2023-05-05T08:33:19.954Z,36.94
2023-05-05T08:34:19.824Z,36.90
2023-05-05T08:35:19.827Z,36.97
2023-05-05T08:36:19.844Z,37.06
2023-05-05T08:37:19.821Z,37.03
2023-05-05T08:38:19.834Z,37.13
2023-05-05T08:39:19.835Z,37.09
2023-05-05T08:40:19.854Z,37.24
2023-05-05T08:41:19.863Z,36.36
2023-05-05T08:42:32.829Z,36.63
2023-05-05T08:43:20.879Z,36.69
2023-05-05T08:44:20.292Z,36.87
2023-05-05T08:45:20.005Z,37.18
2023-05-05T08:46:19.932Z,37.06
2023-05-05T08:47:19.847Z,37.11
2023-05-05T08:48:19.827Z,37.25
2023-05-05T08:49:19.826Z,37.22
2023-05-05T08:50:19.826Z,37.25
2023-05-05T08:51:19.825Z,37.16
2023-05-05T08:52:19.824Z,37.08
2023-05-05T08:53:19.812Z,37.06
2023-05-05T08:54:19.797Z,36.88
2023-05-05T08:55:19.779Z,36.67
2023-05-05T08:56:19.781Z,36.45
2023-05-05T08:57:19.780Z,36.40
2023-05-05T08:58:19.779Z,36.26
2023-05-05T08:59:19.809Z,36.26
2023-05-05T09:00:19.764Z,36.10
2023-05-05T09:01:19.885Z,36.00
2023-05-05T09:02:19.795Z,35.82
2023-05-05T09:03:19.731Z,35.69
2023-05-05T09:04:19.749Z,35.67
2023-05-05T09:05:19.909Z,35.63
2023-05-05T09:06:19.891Z,35.54
2023-05-05T09:07:20.041Z,35.46
2023-05-05T09:08:19.940Z,35.37
2023-05-05T09:09:20.042Z,35.31
2023-05-05T09:10:20.068Z,35.36
2023-05-05T09:11:20.171Z,35.04
2023-05-05T09:12:20.239Z,35.26
2023-05-05T09:13:20.422Z,35.15
2023-05-05T09:14:20.327Z,35.20
2023-05-05T09:15:20.404Z,34.67
2023-05-05T09:16:20.603Z,35.00
2023-05-05T09:17:20.612Z,34.78
2023-05-05T09:18:20.576Z,34.76
2023-05-05T09:19:20.642Z,34.99
2023-05-05T09:20:20.708Z,34.45
2023-05-05T09:21:20.758Z,34.73
2023-05-05T09:22:20.833Z,34.98
2023-05-05T09:23:20.916Z,35.00
2023-05-05T09:24:22.306Z,35.07
2023-05-05T09:25:20.996Z,35.07
2023-05-05T09:26:21.077Z,35.05
2023-05-05T09:27:21.134Z,34.98
2023-05-05T09:28:21.164Z,34.99
2023-05-05T09:29:21.302Z,34.89
2023-05-05T09:30:21.278Z,34.90
2023-05-05T09:31:21.371Z,34.84
2023-05-05T09:32:21.362Z,34.52
2023-05-05T09:33:21.450Z,34.64
2023-05-05T09:34:21.831Z,34.57
2023-05-05T09:35:21.489Z,34.44
2023-05-05T09:36:21.493Z,33.30
2023-05-05T09:37:21.557Z,32.77
2023-05-05T09:38:21.705Z,32.43
2023-05-05T09:39:21.689Z,32.55
2023-05-05T09:40:21.840Z,32.62
2023-05-05T09:41:21.804Z,32.66
2023-05-05T09:42:21.866Z,32.61
2023-05-05T09:43:22.821Z,32.68
2023-05-05T09:44:22.362Z,32.56
2023-05-05T09:45:22.089Z,32.47
2023-05-05T09:46:22.131Z,32.60
2023-05-05T09:47:29.460Z,32.54
2023-05-05T09:48:23.195Z,32.50
2023-05-05T09:49:22.391Z,32.50
2023-05-05T09:50:22.125Z,32.59
2023-05-05T09:51:22.149Z,32.59
2023-05-05T09:52:22.110Z,32.52
2023-05-05T09:53:22.157Z,32.42
2023-05-05T09:54:22.105Z,32.45
2023-05-05T09:55:22.118Z,32.50
2023-05-05T09:56:22.115Z,32.49
2023-05-05T09:57:22.081Z,32.60
2023-05-05T09:58:22.158Z,32.46
2023-05-05T09:59:22.071Z,32.20
2023-05-05T10:00:22.059Z,32.17
2023-05-05T10:01:22.143Z,32.07
2023-05-05T10:02:22.043Z,32.21
2023-05-05T10:03:22.047Z,32.24
2023-05-05T10:04:22.094Z,32.20
2023-05-05T10:05:22.228Z,32.21
2023-05-05T10:06:22.015Z,32.14
2023-05-05T10:07:22.035Z,32.07
2023-05-05T10:08:21.998Z,32.05
2023-05-05T10:09:21.979Z,32.04
2023-05-05T10:10:22.026Z,31.97
2023-05-05T10:11:22.008Z,31.90
2023-05-05T10:12:21.962Z,31.91
2023-05-05T10:13:21.944Z,31.82
2023-05-05T10:14:21.955Z,31.81
2023-05-05T10:15:22.863Z,31.74
2023-05-05T10:16:22.077Z,31.65
2023-05-05T10:17:21.957Z,31.68
2023-05-05T10:18:22.099Z,31.64
2023-05-05T10:19:21.936Z,31.59
2023-05-05T10:20:22.824Z,31.64
2023-05-05T10:21:22.027Z,31.58
2023-05-05T10:22:21.922Z,31.58
2023-05-05T10:23:21.944Z,31.38
2023-05-05T10:24:22.023Z,31.38
2023-05-05T10:25:21.930Z,31.41
2023-05-05T10:26:21.958Z,31.32
2023-05-05T10:27:22.054Z,31.15
2023-05-05T10:28:22.389Z,31.05
2023-05-05T10:29:22.020Z,31.29
2023-05-05T10:30:21.976Z,31.56
2023-05-05T10:31:26.284Z,31.51
2023-05-05T10:32:51.102Z,31.85
2023-05-05T10:34:21.992Z,32.21
2023-05-05T10:35:21.939Z,32.31
2023-05-05T10:36:21.953Z,32.52
2023-05-05T10:37:22.017Z,32.60
2023-05-05T10:38:22.717Z,32.66
2023-05-05T10:39:21.915Z,32.77
2023-05-05T10:40:21.905Z,32.72
2023-05-05T10:41:21.907Z,32.82
2023-05-05T10:42:21.932Z,32.89
2023-05-05T10:43:22.378Z,32.97
2023-05-05T10:44:22.386Z,33.11
2023-05-05T10:45:22.001Z,33.12
2023-05-05T10:46:22.091Z,33.22
2023-05-05T10:47:22.864Z,33.24
2023-05-05T10:48:22.179Z,33.35
2023-05-05T10:49:22.400Z,33.44
2023-05-05T10:50:22.836Z,33.49
2023-05-05T10:51:35.177Z,33.48
2023-05-05T10:52:23.226Z,33.51
2023-05-05T10:53:22.356Z,33.49
2023-05-05T10:54:22.268Z,33.52
2023-05-05T10:55:22.211Z,33.72
2023-05-05T10:56:22.203Z,33.75
2023-05-05T10:57:22.246Z,33.76
2023-05-05T10:58:22.251Z,33.92
2023-05-05T10:59:22.173Z,34.07
2023-05-05T11:00:22.174Z,34.13
2023-05-05T11:01:22.225Z,34.34
2023-05-05T11:02:22.164Z,34.32
2023-05-05T11:03:22.427Z,34.42
2023-05-05T11:04:22.153Z,34.50
2023-05-05T11:05:22.207Z,33.26
2023-05-05T11:06:22.190Z,32.33
2023-05-05T11:07:22.224Z,31.25
2023-05-05T11:08:22.274Z,31.17
2023-05-05T11:09:22.934Z,31.38
2023-05-05T11:10:22.342Z,31.31
2023-05-05T11:11:22.361Z,31.87
2023-05-05T11:12:22.414Z,30.87
2023-05-05T11:13:22.575Z,31.47
2023-05-05T11:14:22.490Z,31.53
2023-05-05T11:15:22.509Z,31.34
2023-05-05T11:16:22.625Z,30.82
2023-05-05T11:17:22.493Z,30.77
2023-05-05T11:18:22.542Z,30.80
2023-05-05T11:19:22.519Z,30.77
2023-05-05T11:20:22.567Z,30.88
2023-05-05T11:21:22.565Z,30.92
2023-05-05T11:22:22.565Z,30.81
2023-05-05T11:23:22.907Z,30.80
2023-05-05T11:24:22.608Z,30.85
2023-05-05T11:25:22.683Z,30.85
2023-05-05T11:26:22.666Z,30.91
2023-05-05T11:27:22.671Z,30.91
2023-05-05T11:28:22.723Z,30.97
2023-05-05T11:29:22.770Z,31.01
2023-05-05T11:30:22.820Z,31.05
2023-05-05T11:31:22.869Z,31.09
2023-05-05T11:32:23.130Z,31.13
2023-05-05T11:33:22.973Z,31.14
2023-05-05T11:34:22.993Z,31.14
2023-05-05T11:35:23.080Z,31.25
2023-05-05T11:36:23.097Z,31.30
2023-05-05T11:37:23.122Z,31.32
2023-05-05T11:38:23.192Z,31.38
2023-05-05T11:39:23.375Z,31.43
2023-05-05T11:40:23.289Z,31.38
2023-05-05T11:41:23.402Z,31.44
2023-05-05T11:42:23.366Z,31.45
2023-05-05T11:43:23.484Z,31.48
2023-05-05T11:44:23.485Z,31.55
2023-05-05T11:45:23.657Z,31.53
2023-05-05T11:46:23.636Z,31.55
2023-05-05T11:47:23.670Z,31.57
2023-05-05T11:48:23.723Z,31.60
2023-05-05T11:49:23.782Z,31.64
2023-05-05T11:50:23.804Z,31.76
2023-05-05T11:51:23.873Z,31.70
2023-05-05T11:52:23.918Z,31.77
2023-05-05T11:53:23.967Z,31.75
2023-05-05T11:54:24.037Z,31.71
2023-05-05T11:55:24.107Z,31.74
2023-05-05T11:56:24.159Z,31.77
2023-05-05T11:57:24.238Z,31.82
2023-05-05T11:58:24.234Z,31.88
2023-05-05T11:59:24.293Z,31.91
2023-05-05T12:00:24.341Z,31.92
2023-05-05T12:01:24.407Z,31.97
2023-05-05T12:02:24.512Z,31.99
2023-05-05T12:03:24.660Z,32.03
2023-05-05T12:04:24.638Z,31.99
2023-05-05T12:05:24.689Z,32.07
2023-05-05T12:06:24.759Z,32.05
2023-05-05T12:07:24.787Z,32.12
2023-05-05T12:08:24.876Z,32.04
2023-05-05T12:09:24.945Z,32.15
2023-05-05T12:10:24.980Z,32.17
2023-05-05T12:11:25.029Z,32.10
2023-05-05T12:12:25.090Z,32.19
2023-05-05T12:13:25.375Z,32.21
2023-05-05T12:14:25.212Z,32.22
2023-05-05T12:15:25.256Z,32.21
2023-05-05T12:16:25.394Z,32.24
2023-05-05T12:17:25.385Z,32.19
2023-05-05T12:18:25.433Z,32.24
2023-05-05T12:19:25.455Z,32.30
2023-05-05T12:20:25.542Z,32.31
2023-05-05T12:21:25.598Z,32.28
2023-05-05T12:22:25.612Z,32.30
2023-05-05T12:23:25.654Z,32.36
2023-05-05T12:24:25.696Z,32.36
2023-05-05T12:25:25.755Z,32.36
2023-05-05T12:26:25.821Z,32.40
2023-05-05T12:27:25.891Z,32.39
2023-05-05T12:28:25.930Z,32.41
2023-05-05T12:29:26.187Z,32.40
2023-05-05T12:30:26.106Z,32.50
2023-05-05T12:31:26.176Z,32.50
2023-05-05T12:32:26.170Z,32.51
2023-05-05T12:33:26.211Z,32.50
2023-05-05T12:34:26.228Z,32.47
2023-05-05T12:35:26.245Z,32.46
2023-05-05T12:36:27.231Z,32.54
2023-05-05T12:37:26.356Z,32.58
2023-05-05T12:38:26.352Z,32.57
2023-05-05T12:39:26.394Z,32.57
2023-05-05T12:40:26.414Z,32.59
2023-05-05T12:41:26.463Z,32.60
2023-05-05T12:42:26.486Z,32.54
2023-05-05T12:43:26.503Z,32.60
2023-05-05T12:44:26.514Z,32.62
2023-05-05T12:45:26.552Z,32.65
2023-05-05T12:46:26.611Z,32.62
2023-05-05T12:47:26.591Z,32.61
2023-05-05T12:48:26.603Z,32.61
2023-05-05T12:49:26.541Z,32.62
2023-05-05T12:50:26.537Z,32.65
2023-05-05T12:51:26.536Z,32.68
2023-05-05T12:52:26.535Z,32.65
2023-05-05T12:53:26.541Z,32.65